createdAt,value
2023-04-11T00:00:27.865Z,9.84
2023-04-11T00:01:28.016Z,9.84
2023-04-11T00:02:28.295Z,9.84
2023-04-11T00:03:28.363Z,9.679999
2023-04-11T00:04:28.456Z,9.679999
2023-04-11T00:05:28.564Z,9.679999
2023-04-11T00:06:28.719Z,9.679999
2023-04-11T00:07:28.879Z,9.599999
2023-04-11T00:08:29.023Z,9.599999
2023-04-11T00:09:29.175Z,9.679999
2023-04-11T00:10:29.281Z,9.679999
2023-04-11T00:11:29.431Z,9.84
2023-04-11T00:12:29.545Z,9.84
2023-04-11T00:13:29.685Z,9.679999
2023-04-11T00:14:29.781Z,9.84
2023-04-11T00:16:30.135Z,9.92
2023-04-11T00:17:30.165Z,9.84
2023-04-11T00:18:30.245Z,9.92
2023-04-11T00:19:30.389Z,9.84
2023-04-11T00:20:30.554Z,9.679999
2023-04-11T00:21:30.714Z,9.679999
2023-04-11T00:22:30.846Z,9.84
2023-04-11T00:23:31.007Z,9.84
2023-04-11T00:24:31.104Z,9.84
2023-04-11T00:25:31.249Z,9.92
2023-04-11T00:26:31.399Z,9.92
2023-04-11T00:27:31.510Z,9.92
2023-04-11T00:28:31.659Z,10
2023-04-11T00:29:31.810Z,9.92
2023-04-11T00:30:31.964Z,9.84
2023-04-11T00:31:32.141Z,9.84
2023-04-11T00:32:32.230Z,9.679999
2023-04-11T00:33:32.361Z,9.92
2023-04-11T00:34:32.515Z,10
2023-04-11T00:35:32.671Z,10
2023-04-11T00:36:32.875Z,9.84
2023-04-11T00:37:32.963Z,9.92
2023-04-11T00:38:33.112Z,9.92
2023-04-11T00:39:33.267Z,9.92
2023-04-11T00:40:33.424Z,10
2023-04-11T00:41:33.572Z,9.92
2023-04-11T00:42:33.731Z,10
2023-04-11T00:43:33.875Z,9.92
2023-04-11T00:44:34.030Z,9.92
2023-04-11T00:45:34.187Z,9.92
2023-04-11T00:46:34.337Z,9.92
2023-04-11T00:47:34.537Z,9.92
2023-04-11T00:48:34.601Z,9.84
2023-04-11T00:49:34.734Z,9.92
2023-04-11T00:50:34.883Z,9.84
2023-04-11T00:51:35.039Z,9.84
2023-04-11T00:52:35.145Z,9.84
2023-04-11T00:53:35.289Z,9.92
2023-04-11T00:54:35.405Z,9.84
2023-04-11T00:55:35.540Z,9.84
2023-04-11T00:56:35.695Z,9.84
2023-04-11T00:57:35.846Z,9.84
2023-04-11T00:58:35.998Z,9.84
2023-04-11T00:59:36.146Z,9.84
2023-04-11T01:00:36.299Z,9.84
2023-04-11T01:01:36.562Z,9.92
2023-04-11T01:02:36.628Z,9.84
2023-04-11T01:03:36.701Z,9.84
2023-04-11T01:04:36.806Z,9.84
2023-04-11T01:05:36.960Z,9.92
2023-04-11T01:06:37.111Z,9.679999
2023-04-11T01:07:37.272Z,9.679999
2023-04-11T01:08:37.427Z,9.52
2023-04-11T01:09:37.569Z,9.599999
2023-04-11T01:10:37.718Z,9.28
2023-04-11T01:11:37.869Z,9.12
2023-04-11T01:12:38.023Z,9.28
2023-04-11T01:13:38.174Z,9.2
2023-04-11T01:14:38.280Z,9.28
2023-04-11T01:15:38.381Z,9.12
2023-04-11T01:16:38.495Z,9.12
2023-04-11T01:17:38.651Z,9.36
2023-04-11T01:18:38.784Z,9.52
2023-04-11T01:19:38.937Z,9.52
2023-04-11T01:20:39.088Z,9.52
2023-04-11T01:21:39.238Z,9.599999
2023-04-11T01:22:39.396Z,9.599999
2023-04-11T01:23:39.554Z,9.84
2023-04-11T01:24:39.692Z,9.84
2023-04-11T01:25:39.807Z,9.84
2023-04-11T01:26:39.958Z,9.92
2023-04-11T01:27:40.097Z,9.84
2023-04-11T01:28:40.222Z,9.84
2023-04-11T01:29:40.361Z,10
2023-04-11T01:30:40.528Z,10
2023-04-11T01:31:40.617Z,10
2023-04-11T01:32:40.753Z,10.08
2023-04-11T01:33:40.908Z,10.08
2023-04-11T01:34:41.072Z,10
2023-04-11T01:35:41.262Z,10
2023-04-11T01:36:41.362Z,10.08
2023-04-11T01:37:41.519Z,10.08
2023-04-11T01:38:41.673Z,10.08
2023-04-11T01:39:41.774Z,10.24
2023-04-11T01:40:41.882Z,10.08
2023-04-11T01:41:42.023Z,10.08
2023-04-11T01:42:42.165Z,10.08
2023-04-11T01:43:42.320Z,10.08
2023-04-11T01:44:42.470Z,10
2023-04-11T01:45:42.620Z,10.24
2023-04-11T01:46:42.731Z,10.32
2023-04-11T01:47:42.928Z,10.32
2023-04-11T01:48:43.043Z,10.24
2023-04-11T01:49:43.126Z,10.08
2023-04-11T01:50:43.233Z,10.08
2023-04-11T01:51:43.379Z,10.24
2023-04-11T01:52:43.492Z,10.08
2023-04-11T01:53:43.631Z,10.08
2023-04-11T01:54:43.745Z,10.08
2023-04-11T01:55:43.841Z,10
2023-04-11T01:56:43.944Z,10.08
2023-04-11T01:57:44.101Z,10.08
2023-04-11T01:58:44.242Z,10.08
2023-04-11T01:59:44.389Z,10.08
2023-04-11T02:00:44.544Z,10.08
2023-04-11T02:01:44.768Z,10.08
2023-04-11T02:02:44.922Z,10.08
2023-04-11T02:03:45.087Z,10.08
2023-04-11T02:04:45.148Z,10.08
2023-04-11T02:05:45.307Z,9.92
2023-04-11T02:06:45.449Z,9.92
2023-04-11T02:07:45.561Z,9.92
2023-04-11T02:08:45.710Z,10.08
2023-04-11T02:09:45.857Z,10.08
2023-04-11T02:10:46.008Z,10
2023-04-11T02:11:46.166Z,10
2023-04-11T02:12:46.325Z,10.08
2023-04-11T02:13:46.467Z,10.24
2023-04-11T02:14:46.612Z,10.24
2023-04-11T02:15:46.801Z,10.32
2023-04-11T02:16:46.917Z,10.08
2023-04-11T02:17:47.093Z,10
2023-04-11T02:18:47.225Z,10.08
2023-04-11T02:19:47.371Z,10.08
2023-04-11T02:20:47.521Z,10.24
2023-04-11T02:21:47.676Z,10.32
2023-04-11T02:22:47.829Z,10.24
2023-04-11T02:23:47.981Z,10.24
2023-04-11T02:24:48.134Z,10.24
2023-04-11T02:25:48.290Z,10.32
2023-04-11T02:26:48.433Z,10.24
2023-04-11T02:27:48.589Z,10.32
2023-04-11T02:28:48.687Z,10.32
2023-04-11T02:29:48.845Z,10.08
2023-04-11T02:30:49.059Z,10.32
2023-04-11T02:31:49.245Z,10.24
2023-04-11T02:32:49.283Z,10
2023-04-11T02:33:49.399Z,10
2023-04-11T02:34:49.543Z,10
2023-04-11T02:35:49.707Z,10.08
2023-04-11T02:36:49.851Z,10.08
2023-04-11T02:37:50.003Z,10
2023-04-11T02:38:50.154Z,9.92
2023-04-11T02:39:50.306Z,10.08
2023-04-11T02:40:50.466Z,10.08
2023-04-11T02:41:50.613Z,10
2023-04-11T02:42:50.763Z,9.92
2023-04-11T02:43:50.919Z,10
2023-04-11T02:44:51.062Z,9.92
2023-04-11T02:45:54.271Z,9.92
2023-04-11T02:46:51.350Z,10
2023-04-11T02:47:51.493Z,10
2023-04-11T02:48:51.624Z,10
2023-04-11T02:49:51.771Z,9.92
2023-04-11T02:50:51.923Z,9.92
2023-04-11T02:51:52.072Z,10
2023-04-11T02:52:52.178Z,9.92
2023-04-11T02:53:52.323Z,10.08
2023-04-11T02:54:52.481Z,10
2023-04-11T02:55:52.631Z,9.92
2023-04-11T02:56:52.816Z,9.92
2023-04-11T02:57:52.890Z,9.92
2023-04-11T02:58:53.044Z,9.84
2023-04-11T02:59:53.197Z,10
2023-04-11T03:00:53.336Z,10
2023-04-11T03:01:53.522Z,9.92
2023-04-11T03:02:53.656Z,10
2023-04-11T03:03:53.811Z,10
2023-04-11T03:04:53.909Z,9.92
2023-04-11T03:05:54.046Z,9.84
2023-04-11T03:06:54.198Z,9.679999
2023-04-11T03:07:54.354Z,9.84
2023-04-11T03:08:54.746Z,9.84
2023-04-11T03:09:54.599Z,9.679999
2023-04-11T03:10:54.756Z,9.599999
2023-04-11T03:11:54.902Z,10
2023-04-11T03:12:55.057Z,9.84
2023-04-11T03:13:55.207Z,9.52
2023-04-11T03:14:55.362Z,9.52
2023-04-11T03:16:56.068Z,9.12
2023-04-11T03:17:56.223Z,9.12
2023-04-11T03:18:56.468Z,8.88
2023-04-11T03:19:56.444Z,8.88
2023-04-11T03:20:56.578Z,8.8
2023-04-11T03:21:56.748Z,8.88
2023-04-11T03:22:56.905Z,8.72
2023-04-11T03:23:57.036Z,8.72
2023-04-11T03:24:57.198Z,8.88
2023-04-11T03:25:57.332Z,8.4
2023-04-11T03:26:57.532Z,8.48
2023-04-11T03:27:57.668Z,8.32
2023-04-11T03:28:57.866Z,8.48
2023-04-11T03:29:57.941Z,8.4
2023-04-11T03:30:58.160Z,8.24
2023-04-11T03:31:58.364Z,8.24
2023-04-11T03:32:58.508Z,8.24
2023-04-11T03:33:58.602Z,8.24
2023-04-11T03:34:58.713Z,8.24
2023-04-11T03:35:58.857Z,8.32
2023-04-11T03:36:58.647Z,8.24
2023-04-11T03:37:58.766Z,8.4
2023-04-11T03:38:58.896Z,8.32
2023-04-11T03:39:59.050Z,8.32
2023-04-11T03:40:59.205Z,8.32
2023-04-11T03:41:59.352Z,8.32
2023-04-11T03:42:59.460Z,8.32
2023-04-11T03:43:59.605Z,8.24
2023-04-11T03:44:59.757Z,8.08
2023-04-11T03:45:59.914Z,8.24
2023-04-11T03:47:00.096Z,8.08
2023-04-11T03:48:00.252Z,8.24
2023-04-11T03:49:00.368Z,8.24
2023-04-11T03:50:00.531Z,8.32
2023-04-11T03:51:00.672Z,8.24
2023-04-11T03:52:00.829Z,8.08
2023-04-11T03:53:00.926Z,7.92
2023-04-11T03:54:01.092Z,8
2023-04-11T03:55:01.223Z,8
2023-04-11T03:56:01.343Z,7.92
2023-04-11T03:57:01.481Z,7.84
2023-04-11T03:58:01.691Z,8
2023-04-11T03:59:01.784Z,7.68
2023-04-11T04:00:01.925Z,7.68
2023-04-11T04:01:02.043Z,7.92
2023-04-11T04:02:02.770Z,7.92
2023-04-11T04:03:02.573Z,7.84
2023-04-11T04:04:02.904Z,7.68
2023-04-11T04:05:02.571Z,7.92
2023-04-11T04:06:02.695Z,7.92
2023-04-11T04:07:02.843Z,7.84
2023-04-11T04:08:02.945Z,7.6
2023-04-11T04:09:03.048Z,7.68
2023-04-11T04:10:03.192Z,7.6
2023-04-11T04:11:03.345Z,7.84
2023-04-11T04:12:03.467Z,7.68
2023-04-11T04:13:03.593Z,7.6
2023-04-11T04:14:03.753Z,7.68
2023-04-11T04:15:03.865Z,7.84
2023-04-11T04:16:04.178Z,7.84
2023-04-11T04:17:04.155Z,7.84
2023-04-11T04:18:04.321Z,7.68
2023-04-11T04:19:04.457Z,7.68
2023-04-11T04:20:04.578Z,7.84
2023-04-11T04:21:04.713Z,7.84
2023-04-11T04:22:04.866Z,7.68
2023-04-11T04:23:05.019Z,7.68
2023-04-11T04:24:05.191Z,7.84
2023-04-11T04:25:05.319Z,7.92
2023-04-11T04:26:05.482Z,7.84
2023-04-11T04:27:05.638Z,7.92
2023-04-11T04:28:05.772Z,7.92
2023-04-11T04:29:05.921Z,7.92
2023-04-11T04:30:06.091Z,7.92
2023-04-11T04:31:06.226Z,8
2023-04-11T04:32:06.435Z,8
2023-04-11T04:33:06.511Z,7.68
2023-04-11T04:34:06.633Z,7.68
2023-04-11T04:35:06.780Z,7.92
2023-04-11T04:36:06.940Z,7.92
2023-04-11T04:37:07.082Z,7.92
2023-04-11T04:38:07.199Z,7.84
2023-04-11T04:39:07.339Z,7.84
2023-04-11T04:40:07.497Z,7.84
2023-04-11T04:41:07.649Z,7.84
2023-04-11T04:42:07.797Z,7.92
2023-04-11T04:43:07.946Z,8.08
2023-04-11T04:44:08.098Z,8
2023-04-11T04:45:08.247Z,7.92
2023-04-11T04:46:08.452Z,8
2023-04-11T04:47:08.559Z,8
2023-04-11T04:48:08.780Z,7.92
2023-04-11T04:49:08.864Z,8
2023-04-11T04:50:09.014Z,7.92
2023-04-11T04:51:09.188Z,7.92
2023-04-11T04:52:09.313Z,7.92
2023-04-11T04:53:09.467Z,8
2023-04-11T04:54:09.615Z,7.92
2023-04-11T04:55:09.763Z,8
2023-04-11T04:56:09.916Z,8
2023-04-11T04:57:10.036Z,8
2023-04-11T04:58:10.169Z,7.92
2023-04-11T04:59:10.324Z,7.84
2023-04-11T05:00:10.424Z,7.84
2023-04-11T05:01:10.599Z,7.92
2023-04-11T05:02:10.742Z,7.84
2023-04-11T05:03:11.010Z,8
2023-04-11T05:04:11.191Z,8
2023-04-11T05:05:11.147Z,8.08
2023-04-11T05:06:11.284Z,8.24
2023-04-11T05:07:11.384Z,8.08
2023-04-11T05:08:11.491Z,8
2023-04-11T05:09:11.637Z,8
2023-04-11T05:10:11.812Z,7.92
2023-04-11T05:11:11.972Z,7.84
2023-04-11T05:12:12.094Z,7.84
2023-04-11T05:13:12.253Z,7.92
2023-04-11T05:14:12.394Z,7.92
2023-04-11T05:15:12.546Z,7.84
2023-04-11T05:16:12.722Z,7.84
2023-04-11T05:17:12.817Z,7.92
2023-04-11T05:18:12.901Z,7.92
2023-04-11T05:19:13.050Z,7.84
2023-04-11T05:20:13.199Z,7.84
2023-04-11T05:21:13.353Z,7.68
2023-04-11T05:22:13.510Z,7.6
2023-04-11T05:23:13.665Z,7.68
2023-04-11T05:24:13.807Z,7.6
2023-04-11T05:25:13.976Z,7.52
2023-04-11T05:26:14.122Z,7.6
2023-04-11T05:27:14.218Z,7.6
2023-04-11T05:28:14.316Z,7.6
2023-04-11T05:29:14.467Z,7.52
2023-04-11T05:30:14.572Z,7.52
2023-04-11T05:31:14.733Z,7.68
2023-04-11T05:32:14.872Z,7.68
2023-04-11T05:33:15.024Z,7.68
2023-04-11T05:34:15.178Z,7.68
2023-04-11T05:35:15.321Z,7.68
2023-04-11T05:36:15.520Z,7.68
2023-04-11T05:37:15.642Z,7.68
2023-04-11T05:38:15.778Z,7.68
2023-04-11T05:39:15.973Z,7.6
2023-04-11T05:40:16.106Z,7.6
2023-04-11T05:41:16.236Z,7.44
2023-04-11T05:42:16.347Z,7.44
2023-04-11T05:43:16.498Z,7.6
2023-04-11T05:44:16.642Z,7.6
2023-04-11T05:45:17.174Z,7.84
2023-04-11T05:46:17.008Z,7.52
2023-04-11T05:47:17.106Z,7.52
2023-04-11T05:48:17.726Z,7.52
2023-04-11T05:49:17.360Z,7.6
2023-04-11T05:50:17.499Z,7.6
2023-04-11T05:51:17.671Z,7.6
2023-04-11T05:52:17.755Z,7.44
2023-04-11T05:53:17.921Z,7.44
2023-04-11T05:54:18.064Z,7.44
2023-04-11T05:55:18.213Z,7.2
2023-04-11T05:56:18.313Z,7.2
2023-04-11T05:57:18.457Z,7.2
2023-04-11T05:58:19.133Z,7.2
2023-04-11T05:59:22.358Z,7.28
2023-04-11T06:00:18.915Z,7.2
2023-04-11T06:01:19.662Z,7.44
2023-04-11T06:02:19.181Z,7.44
2023-04-11T06:03:19.349Z,7.28
2023-04-11T06:04:19.477Z,7.28
2023-04-11T06:05:19.538Z,7.28
2023-04-11T06:06:19.687Z,7.28
2023-04-11T06:07:19.822Z,7.2
2023-04-11T06:08:19.975Z,7.28
2023-04-11T06:09:20.126Z,7.2
2023-04-11T06:10:20.278Z,7.28
2023-04-11T06:11:20.428Z,7.2
2023-04-11T06:12:20.584Z,7.28
2023-04-11T06:13:20.748Z,7.44
2023-04-11T06:14:20.898Z,7.44
2023-04-11T06:15:21.098Z,7.44
2023-04-11T06:16:21.169Z,7.44
2023-04-11T06:17:21.305Z,7.44
2023-04-11T06:18:21.498Z,7.44
2023-04-11T06:19:21.591Z,7.28
2023-04-11T06:20:21.746Z,7.28
2023-04-11T06:21:21.899Z,7.28
2023-04-11T06:22:22.057Z,7.2
2023-04-11T06:23:22.200Z,7.28
2023-04-11T06:24:22.352Z,7.2
2023-04-11T06:25:22.500Z,7.2
2023-04-11T06:26:22.660Z,7.2
2023-04-11T06:27:22.800Z,7.12
2023-04-11T06:28:22.908Z,7.12
2023-04-11T06:29:23.064Z,7.12
2023-04-11T06:30:23.208Z,7.12
2023-04-11T06:31:23.385Z,7.12
2023-04-11T06:32:23.497Z,7.2
2023-04-11T06:33:23.634Z,7.2
2023-04-11T06:34:23.769Z,7.44
2023-04-11T06:35:23.927Z,7.28
2023-04-11T06:36:24.029Z,7.28
2023-04-11T06:37:24.168Z,7.52
2023-04-11T06:38:24.279Z,7.52
2023-04-11T06:39:24.433Z,7.52
2023-04-11T06:40:24.533Z,7.6
2023-04-11T06:41:24.677Z,7.52
2023-04-11T06:42:24.839Z,7.52
2023-04-11T06:43:24.935Z,7.44
2023-04-11T06:44:25.147Z,7.52
2023-04-11T06:45:25.243Z,7.68
2023-04-11T06:46:25.353Z,7.68
2023-04-11T06:47:25.510Z,7.68
2023-04-11T06:48:25.651Z,7.6
2023-04-11T06:49:25.789Z,7.6
2023-04-11T06:50:25.966Z,7.6
2023-04-11T06:51:26.106Z,7.6
2023-04-11T06:52:27.616Z,7.68
2023-04-11T06:53:26.398Z,7.6
2023-04-11T06:54:26.562Z,7.6
2023-04-11T06:55:26.712Z,7.68
2023-04-11T06:56:26.829Z,7.68
2023-04-11T06:57:26.957Z,7.6
2023-04-11T06:58:27.107Z,7.68
2023-04-11T06:59:27.496Z,7.6
2023-04-11T07:00:27.357Z,7.84
2023-04-11T07:01:27.546Z,7.84
2023-04-11T07:02:27.796Z,7.92
2023-04-11T07:03:27.850Z,7.92
2023-04-11T07:04:28.112Z,7.84
2023-04-11T07:05:28.073Z,7.84
2023-04-11T07:06:28.252Z,7.6
2023-04-11T07:07:28.381Z,7.68
2023-04-11T07:08:28.766Z,7.68
2023-04-11T07:09:28.634Z,7.84
2023-04-11T07:10:28.774Z,7.84
2023-04-11T07:11:28.979Z,7.92
2023-04-11T07:12:29.085Z,7.92
2023-04-11T07:13:29.231Z,7.84
2023-04-11T07:14:29.379Z,7.84
2023-04-11T07:16:29.694Z,7.92
2023-04-11T07:17:29.814Z,7.84
2023-04-11T07:18:29.894Z,7.84
2023-04-11T07:19:30.044Z,8
2023-04-11T07:20:30.191Z,7.92
2023-04-11T07:21:30.378Z,7.84
2023-04-11T07:22:30.492Z,8
2023-04-11T07:23:30.653Z,7.84
2023-04-11T07:24:30.806Z,8.08
2023-04-11T07:25:31.040Z,8.08
2023-04-11T07:26:31.047Z,8.24
2023-04-11T07:27:31.204Z,8.24
2023-04-11T07:28:31.357Z,8.08
2023-04-11T07:29:31.505Z,8.08
2023-04-11T07:30:31.646Z,8.08
2023-04-11T07:31:31.781Z,8.08
2023-04-11T07:32:31.941Z,8.24
2023-04-11T07:33:32.061Z,8.24
2023-04-11T07:34:32.216Z,8.24
2023-04-11T07:35:32.452Z,7.92
2023-04-11T07:36:32.469Z,7.92
2023-04-11T07:37:32.629Z,7.92
2023-04-11T07:38:32.775Z,7.92
2023-04-11T07:39:32.873Z,7.84
2023-04-11T07:40:33.024Z,7.92
2023-04-11T07:41:33.173Z,7.92
2023-04-11T07:42:33.329Z,7.6
2023-04-11T07:43:33.426Z,7.68
2023-04-11T07:44:33.591Z,7.68
2023-04-11T07:45:33.770Z,7.68
2023-04-11T07:46:33.832Z,7.68
2023-04-11T07:47:34.004Z,7.84
2023-04-11T07:48:34.135Z,7.84
2023-04-11T07:49:34.284Z,7.84
2023-04-11T07:50:34.434Z,7.84
2023-04-11T07:51:34.539Z,7.84
2023-04-11T07:52:34.688Z,8
2023-04-11T07:53:34.837Z,8.08
2023-04-11T07:54:35.001Z,8.08
2023-04-11T07:55:35.239Z,8
2023-04-11T07:56:35.261Z,7.84
2023-04-11T07:57:35.393Z,7.84
2023-04-11T07:58:35.546Z,7.68
2023-04-11T07:59:35.703Z,7.68
2023-04-11T08:00:35.855Z,7.84
2023-04-11T08:01:36.013Z,7.68
2023-04-11T08:02:36.254Z,7.84
2023-04-11T08:03:36.445Z,7.68
2023-04-11T08:04:36.560Z,7.68
2023-04-11T08:05:36.566Z,7.84
2023-04-11T08:06:36.665Z,8
2023-04-11T08:07:36.765Z,8.08
2023-04-11T08:08:36.949Z,8
2023-04-11T08:09:37.068Z,7.92
2023-04-11T08:10:37.221Z,7.84
2023-04-11T08:11:37.367Z,7.68
2023-04-11T08:12:37.523Z,7.84
2023-04-11T08:13:38.463Z,7.6
2023-04-11T08:14:38.086Z,7.68
2023-04-11T08:16:38.354Z,7.68
2023-04-11T08:17:38.780Z,7.6
2023-04-11T08:18:38.383Z,7.6
2023-04-11T08:19:38.487Z,7.52
2023-04-11T08:20:38.598Z,7.6
2023-04-11T08:21:38.744Z,7.6
2023-04-11T08:22:38.898Z,7.84
2023-04-11T08:23:39.310Z,7.84
2023-04-11T08:24:39.463Z,7.68
2023-04-11T08:25:39.660Z,7.68
2023-04-11T08:26:39.460Z,7.84
2023-04-11T08:27:40.368Z,7.92
2023-04-11T08:28:41.993Z,8.08
2023-04-11T08:29:40.036Z,8.08
2023-04-11T08:30:40.916Z,8
2023-04-11T08:31:40.180Z,7.92
2023-04-11T08:32:40.755Z,7.92
2023-04-11T08:33:40.531Z,8.24
2023-04-11T08:34:40.612Z,8.24
2023-04-11T08:35:40.763Z,8.08
2023-04-11T08:36:40.874Z,7.92
2023-04-11T08:37:41.178Z,7.92
2023-04-11T08:38:41.211Z,8.32
2023-04-11T08:39:41.369Z,8.4
2023-04-11T08:40:41.522Z,8.4
2023-04-11T08:41:41.674Z,8.48
2023-04-11T08:42:41.823Z,8.639999
2023-04-11T08:43:41.968Z,8.4
2023-04-11T08:44:42.126Z,8.48
2023-04-11T08:45:42.280Z,8.639999
2023-04-11T08:46:42.390Z,8.8
2023-04-11T08:47:44.816Z,9.12
2023-04-11T08:48:42.683Z,8.8
2023-04-11T08:49:42.832Z,8.88
2023-04-11T08:50:43.221Z,8.8
2023-04-11T08:51:43.145Z,8.88
2023-04-11T08:52:45.054Z,9.04
2023-04-11T08:53:43.438Z,9.2
2023-04-11T08:54:43.585Z,9.12
2023-04-11T08:55:43.731Z,9.36
2023-04-11T08:56:43.901Z,9.52
2023-04-11T08:57:44.055Z,9.52
2023-04-11T08:58:44.191Z,9.599999
2023-04-11T08:59:44.291Z,9.599999
2023-04-11T09:00:44.450Z,10
2023-04-11T09:01:44.596Z,10
2023-04-11T09:02:44.753Z,10.4
2023-04-11T09:03:44.914Z,10.8
2023-04-11T09:04:45.088Z,10.8
2023-04-11T09:05:45.103Z,10.719999
2023-04-11T09:06:45.251Z,10.639999
2023-04-11T09:07:45.411Z,10.8
2023-04-11T09:08:45.562Z,11.2
2023-04-11T09:09:45.726Z,11.44
2023-04-11T09:10:45.900Z,10.719999
2023-04-11T09:11:46.046Z,11.12
2023-04-11T09:12:46.160Z,11.679999
2023-04-11T09:13:46.310Z,12
2023-04-11T09:14:46.483Z,12
2023-04-11T09:16:47.090Z,12.32
2023-04-11T09:17:47.259Z,12.799999
2023-04-11T09:18:47.404Z,13.679999
2023-04-11T09:19:49.080Z,14.639999
2023-04-11T09:20:47.374Z,15.04
2023-04-11T09:21:47.861Z,15.12
2023-04-11T09:22:47.957Z,13.84
2023-04-11T09:23:47.780Z,14.32
2023-04-11T09:24:48.247Z,14.719999
2023-04-11T09:25:47.984Z,14.719999
2023-04-11T09:26:48.137Z,14.32
2023-04-11T09:27:48.289Z,14.48
2023-04-11T09:28:48.441Z,14.719999
2023-04-11T09:29:48.591Z,15.04
2023-04-11T09:30:48.773Z,14
2023-04-11T09:31:48.941Z,14.32
2023-04-11T09:32:49.067Z,14.48
2023-04-11T09:33:49.198Z,14.639999
2023-04-11T09:34:49.353Z,14.32
2023-04-11T09:35:49.549Z,13.2
2023-04-11T09:36:49.681Z,13.599999
2023-04-11T09:37:49.809Z,13.679999
2023-04-11T09:38:49.990Z,13.84
2023-04-11T09:39:50.108Z,14.639999
2023-04-11T09:40:50.258Z,15.28
2023-04-11T09:41:50.420Z,16.24
2023-04-11T09:42:50.569Z,15.679999
2023-04-11T09:43:50.742Z,16.08
2023-04-11T09:44:50.890Z,15.599999
2023-04-11T09:45:54.266Z,16.88
2023-04-11T09:46:51.666Z,15.599999
2023-04-11T09:47:51.390Z,15.599999
2023-04-11T09:48:51.475Z,17.2
2023-04-11T09:49:51.620Z,16.24
2023-04-11T09:50:51.769Z,16.48
2023-04-11T09:51:51.927Z,17.44
2023-04-11T09:52:52.040Z,18.08
2023-04-11T09:53:52.188Z,17.04
2023-04-11T09:54:52.342Z,17.44
2023-04-11T09:55:52.486Z,18.08
2023-04-11T09:56:52.635Z,16.8
2023-04-11T09:57:52.782Z,16.4
2023-04-11T09:58:53.072Z,16.48
2023-04-11T09:59:53.092Z,16.8
2023-04-11T10:00:53.246Z,15.92
2023-04-11T10:01:53.483Z,15.679999
2023-04-11T10:02:53.852Z,15.839999
2023-04-11T10:03:53.769Z,16.88
2023-04-11T10:04:53.920Z,17.04
2023-04-11T10:05:53.996Z,16.4
2023-04-11T10:06:54.154Z,16.64
2023-04-11T10:07:54.302Z,15.599999
2023-04-11T10:08:54.767Z,15.04
2023-04-11T10:09:54.571Z,14.799999
2023-04-11T10:10:54.722Z,14.639999
2023-04-11T10:11:54.863Z,14.719999
2023-04-11T10:12:55.002Z,15.92
2023-04-11T10:13:55.222Z,14.4
2023-04-11T10:14:55.260Z,13.84
2023-04-11T10:15:55.453Z,13.679999
2023-04-11T10:16:55.563Z,13.44
2023-04-11T10:17:55.708Z,13.44
2023-04-11T10:18:55.792Z,13.04
2023-04-11T10:19:55.918Z,13.2
2023-04-11T10:20:56.064Z,13.44
2023-04-11T10:21:56.256Z,13.12
2023-04-11T10:22:56.421Z,13.2
2023-04-11T10:23:56.723Z,13.44
2023-04-11T10:24:56.674Z,13.2
2023-04-11T10:25:56.823Z,11.92
2023-04-11T10:26:56.978Z,10.24
2023-04-11T10:27:57.127Z,9.92
2023-04-11T10:28:57.284Z,9.36
2023-04-11T10:29:57.390Z,9.28
2023-04-11T10:30:57.531Z,9.2
2023-04-11T10:31:57.699Z,9.28
2023-04-11T10:32:57.764Z,9.12
2023-04-11T10:33:58.037Z,8.88
2023-04-11T10:34:58.036Z,8.72
2023-04-11T10:35:58.268Z,8.48
2023-04-11T10:36:58.352Z,8.24
2023-04-11T10:37:58.493Z,7.84
2023-04-11T10:38:58.683Z,7.6
2023-04-11T10:39:58.756Z,7.2
2023-04-11T10:40:58.912Z,7.2
2023-04-11T10:41:59.048Z,7.44
2023-04-11T10:42:59.204Z,7.52
2023-04-11T10:43:59.391Z,7.68
2023-04-11T10:45:00.004Z,7.84
2023-04-11T10:45:59.668Z,8
2023-04-11T10:47:00.411Z,8.24
2023-04-11T10:47:59.999Z,8.24
2023-04-11T10:49:00.150Z,8.08
2023-04-11T10:50:00.276Z,8.24
2023-04-11T10:51:00.375Z,8.24
2023-04-11T10:52:00.524Z,8.08
2023-04-11T10:53:00.671Z,8
2023-04-11T10:54:01.199Z,7.92
2023-04-11T10:55:00.922Z,8.24
2023-04-11T10:56:01.072Z,8.8
2023-04-11T10:57:01.237Z,9.28
2023-04-11T10:58:01.378Z,10.88
2023-04-11T10:59:01.526Z,12.24
2023-04-11T11:00:01.741Z,12.4
2023-04-11T11:01:01.855Z,12.48
2023-04-11T11:02:02.177Z,12.719999
2023-04-11T11:03:02.301Z,12.08
2023-04-11T11:04:02.401Z,11.92
2023-04-11T11:05:02.425Z,12.639999
2023-04-11T11:06:02.510Z,12.4
2023-04-11T11:07:02.637Z,12.08
2023-04-11T11:08:02.742Z,11.679999
2023-04-11T11:09:02.890Z,11.52
2023-04-11T11:10:03.039Z,10.8
2023-04-11T11:11:03.221Z,11.04
2023-04-11T11:12:03.350Z,10.48
2023-04-11T11:13:03.492Z,10.4
2023-04-11T11:14:03.596Z,10.24
2023-04-11T11:15:03.718Z,10.08
2023-04-11T11:16:03.912Z,10.08
2023-04-11T11:17:04.094Z,10.24
2023-04-11T11:18:04.127Z,10.24
2023-04-11T11:19:04.156Z,10.24
2023-04-11T11:20:04.310Z,10.08
2023-04-11T11:21:04.725Z,9.92
2023-04-11T11:22:04.561Z,9.599999
2023-04-11T11:23:04.708Z,9.36
2023-04-11T11:24:04.868Z,9.04
2023-04-11T11:25:04.981Z,8.8
2023-04-11T11:26:05.121Z,8.48
2023-04-11T11:27:05.266Z,8.32
2023-04-11T11:28:05.417Z,8.24
2023-04-11T11:29:05.595Z,8.24
2023-04-11T11:30:05.717Z,8
2023-04-11T11:31:05.884Z,7.6
2023-04-11T11:32:06.025Z,7.52
2023-04-11T11:33:06.151Z,7.44
2023-04-11T11:34:21.848Z,7.2
2023-04-11T11:35:06.377Z,7.12
2023-04-11T11:36:06.489Z,7.12
2023-04-11T11:37:06.734Z,7.12
2023-04-11T11:38:06.780Z,7.04
2023-04-11T11:39:06.934Z,7.04
2023-04-11T11:40:07.090Z,6.64
2023-04-11T11:41:07.257Z,6.24
2023-04-11T11:42:07.341Z,5.84
2023-04-11T11:43:07.443Z,5.68
2023-04-11T11:44:07.592Z,5.52
2023-04-11T11:45:07.773Z,5.52
2023-04-11T11:46:08.590Z,5.52
2023-04-11T11:47:08.060Z,5.52
2023-04-11T11:48:08.658Z,5.44
2023-04-11T11:49:08.309Z,5.44
2023-04-11T11:50:08.463Z,5.52
2023-04-11T11:51:08.587Z,5.6
2023-04-11T11:52:08.704Z,5.6
2023-04-11T11:53:08.863Z,5.6
2023-04-11T11:54:09.014Z,5.6
2023-04-11T12:00:09.346Z,5.68
2023-04-11T12:00:09.731Z,6.24
2023-04-11T12:01:09.828Z,6.4
2023-04-11T12:02:10.017Z,6.64
2023-04-11T12:03:10.270Z,6.88
2023-04-11T12:04:10.279Z,6.88
2023-04-11T12:05:10.458Z,7.04
2023-04-11T12:06:10.481Z,6.88
2023-04-11T12:07:10.685Z,6.88
2023-04-11T12:08:10.787Z,7.04
2023-04-11T12:09:10.931Z,7.44
2023-04-11T12:10:11.087Z,8
2023-04-11T12:11:11.240Z,8.08
2023-04-11T12:12:11.386Z,7.84
2023-04-11T12:13:11.583Z,7.84
2023-04-11T12:14:11.695Z,8.24
2023-04-11T12:15:11.872Z,8.48
2023-04-11T12:16:12.038Z,7.92
2023-04-11T12:17:12.104Z,8.32
2023-04-11T12:18:12.271Z,8.24
2023-04-11T12:19:12.428Z,8.639999
2023-04-11T12:20:12.551Z,8.8
2023-04-11T12:21:12.700Z,8.88
2023-04-11T12:22:12.863Z,9.12
2023-04-11T12:23:13.010Z,9.679999
2023-04-11T12:24:13.157Z,9.92
2023-04-11T12:25:13.312Z,10.08
2023-04-11T12:26:13.494Z,9.92
2023-04-11T12:27:13.610Z,9.84
2023-04-11T12:28:13.776Z,9.679999
2023-04-11T12:29:13.875Z,9.84
2023-04-11T12:30:14.021Z,9.92
2023-04-11T12:31:14.186Z,9.92
2023-04-11T12:32:14.331Z,9.92
2023-04-11T12:33:14.476Z,10.08
2023-04-11T12:34:14.623Z,10.8
2023-04-11T12:35:14.784Z,11.04
2023-04-11T12:36:14.933Z,10.88
2023-04-11T12:37:15.084Z,10.8
2023-04-11T12:38:17.309Z,11.28
2023-04-11T12:39:15.382Z,11.2
2023-04-11T12:40:15.538Z,10.719999
2023-04-11T12:41:31.404Z,10.32
2023-04-11T12:42:16.856Z,10.88
2023-04-11T12:43:15.937Z,11.28
2023-04-11T12:44:16.102Z,11.679999
2023-04-11T12:45:16.240Z,12.08
2023-04-11T12:46:16.418Z,11.92
2023-04-11T12:47:16.947Z,12
2023-04-11T12:48:17.112Z,11.44
2023-04-11T12:49:16.863Z,11.679999
2023-04-11T12:50:17.329Z,11.2
2023-04-11T12:51:17.411Z,11.2
2023-04-11T12:52:17.589Z,11.2
2023-04-11T12:53:17.398Z,11.599999
2023-04-11T12:54:17.873Z,10.8
2023-04-11T12:55:17.627Z,10.719999
2023-04-11T12:56:17.763Z,10.8
2023-04-11T12:57:17.911Z,10.639999
2023-04-11T12:58:18.061Z,10.4
2023-04-11T12:59:18.216Z,10.4
2023-04-11T13:00:18.357Z,10.4
2023-04-11T13:01:18.467Z,10
2023-04-11T13:02:19.082Z,9.84
2023-04-11T13:03:18.987Z,9.36
2023-04-11T13:04:19.054Z,9.12
2023-04-11T13:05:19.110Z,9.12
2023-04-11T13:06:19.177Z,8.88
2023-04-11T13:07:19.326Z,8.88
2023-04-11T13:08:19.481Z,9.04
2023-04-11T13:09:19.645Z,9.12
2023-04-11T13:10:19.781Z,9.52
2023-04-11T13:11:19.937Z,9.84
2023-04-11T13:12:20.035Z,9.92
2023-04-11T13:13:20.183Z,9.92
2023-04-11T13:14:20.343Z,11.04
2023-04-11T13:15:20.488Z,10.88
2023-04-11T13:16:20.684Z,11.92
2023-04-11T13:17:20.792Z,12.799999
2023-04-11T13:18:20.949Z,11.92
2023-04-11T13:19:21.112Z,11.679999
2023-04-11T13:20:21.248Z,12.4
2023-04-11T13:21:21.398Z,12.32
2023-04-11T13:22:21.557Z,12
2023-04-11T13:23:21.703Z,12